PWSweather.com
Personal Weather Stations
Station Observations
WISCHPK61
Green Bay Schmitt Park, Green Bay, WI 54311

Green Bay Schmitt ParkGreen Bay, WI 54311

Lat: 44.514277, Lon: -87.935067

Elevation: 735

Station Type: Acu Rite Pro Weather Center model 02032C

http://greenbayweathercam.com

High Low Average
Temperature 82.8°F28.2°C 52.5°F11.4°C 64.2°F17.9°C
Dew Point 82.5°F28.1°C 50.0°F10.0°C 62.3°F16.8°C
Winds 1.2 mph 1.9 kmh Calm Calm Calm SSWCalm SSW
Wind Gusts 1.2 mph1.9 kmh -- --
Humidity 99% 57% 94%
Pressure 29.34 in993.6 mb 29.27 in991.2 mb -
Precipitation 0.00 in0.0 mm - -
Hour Temp Dew Point Humidity Winds Wind Gusts Pressure Precip Precip Rate Daily Precip Total
12:00 AM 54.7°F12.6°C 54.4°F12.4°C 99% Calm Calm -- 29.28 in991.5 mb - 0.00 in0.0 mm 0.00 in0.0 mm
01:00 AM 54.3°F12.4°C 54.0°F12.2°C 99% Calm Calm -- 29.28 in991.5 mb - 0.00 in0.0 mm 0.00 in0.0 mm
02:00 AM 54.7°F12.6°C 53.9°F12.2°C 97% Calm Calm -- 29.28 in991.5 mb - 0.00 in0.0 mm 0.00 in0.0 mm
03:00 AM 54.3°F12.4°C 54.0°F12.2°C 99% Calm Calm -- 29.28 in991.5 mb - 0.00 in0.0 mm 0.00 in0.0 mm
04:00 AM 52.5°F11.4°C 52.2°F11.2°C 99% Calm Calm -- 29.28 in991.5 mb - 0.00 in0.0 mm 0.00 in0.0 mm
05:00 AM 52.9°F11.6°C 50.0°F10.0°C 90% Calm Calm -- 29.29 in991.9 mb - 0.00 in0.0 mm 0.00 in0.0 mm
06:00 AM 54.3°F12.4°C 54.0°F12.2°C 99% Calm Calm -- 29.31 in992.6 mb - 0.00 in0.0 mm 0.00 in0.0 mm
07:00 AM 56.1°F13.4°C 55.8°F13.2°C 99% Calm Calm -- 29.32 in992.9 mb - 0.00 in0.0 mm 0.00 in0.0 mm
08:00 AM 58.6°F14.8°C 58.3°F14.6°C 99% Calm Calm -- 29.33 in993.2 mb - 0.00 in0.0 mm 0.00 in0.0 mm
09:00 AM 62.1°F16.7°C 55.9°F13.3°C 80% Calm Calm -- 29.34 in993.6 mb - 0.00 in0.0 mm 0.00 in0.0 mm
10:00 AM 65.5°F18.6°C 61.5°F16.4°C 87% Calm Calm -- 29.34 in993.6 mb - 0.00 in0.0 mm 0.00 in0.0 mm
11:00 AM 68.2°F20.1°C 59.2°F15.1°C 73% Calm Calm -- 29.34 in993.6 mb - 0.00 in0.0 mm 0.00 in0.0 mm
12:00 PM 70.2°F21.2°C 69.9°F21.1°C 99% Calm Calm -- 29.33 in993.2 mb - 0.00 in0.0 mm 0.00 in0.0 mm
01:00 PM 72.3°F22.4°C 72.0°F22.2°C 99% 1.2 mph WNW1.9 kmh WNW 1.2 mph1.9 kmh 29.33 in993.2 mb - 0.00 in0.0 mm 0.00 in0.0 mm
02:00 PM 75.6°F24.2°C 75.3°F24.1°C 99% Calm Calm 1.2 mph1.9 kmh 29.32 in992.9 mb - 0.00 in0.0 mm 0.00 in0.0 mm
03:00 PM 82.8°F28.2°C 82.5°F28.1°C 99% Calm Calm -- 29.31 in992.6 mb - 0.00 in0.0 mm 0.00 in0.0 mm
04:00 PM 78.4°F25.8°C 61.9°F16.6°C 57% Calm Calm -- 29.30 in992.2 mb - 0.00 in0.0 mm 0.00 in0.0 mm
05:00 PM 75.6°F24.2°C 75.3°F24.1°C 99% Calm Calm -- 29.27 in991.2 mb - 0.00 in0.0 mm 0.00 in0.0 mm
06:00 PM 72.1°F22.3°C 71.8°F22.1°C 99% Calm Calm -- 29.27 in991.2 mb - 0.00 in0.0 mm 0.00 in0.0 mm
07:00 PM 70.3°F21.3°C 70.0°F21.1°C 99% Calm Calm -- 29.28 in991.5 mb - 0.00 in0.0 mm 0.00 in0.0 mm
08:00 PM 67.1°F19.5°C 66.8°F19.3°C 99% Calm Calm -- 29.28 in991.5 mb - 0.00 in0.0 mm 0.00 in0.0 mm
09:00 PM 63.7°F17.6°C 63.4°F17.4°C 99% Calm Calm -- 29.27 in991.2 mb - 0.00 in0.0 mm 0.00 in0.0 mm
10:00 PM 61.3°F16.3°C 61.0°F16.1°C 99% Calm Calm -- 29.29 in991.9 mb - 0.00 in0.0 mm 0.00 in0.0 mm
11:00 PM 59.4°F15.2°C 59.1°F15.1°C 99% Calm Calm -- 29.29 in991.9 mb - 0.00 in0.0 mm 0.00 in0.0 mm